Time,TemperatureF,DewpointF,PressureIn,WindDirection,WindDirectionDegrees,WindSpeedMPH,WindSpeedGustMPH,Humidity,HourlyPrecipIn,Conditions,Clouds,dailyrainin,SolarRadiationWatts/m^2,SoftwareType,DateUTC
2013-06-26 00:29:00,71.8,70.0,29.74,NNW,336,0.0,1.0,94,0.00,CLR,,0.00,0.0,WeatherDisplay:10.37,2013-06-26 04:29:00,
2013-06-26 00:59:00,71.1,69.9,29.74,NNW,336,0.0,1.0,96,0.00,CLR,,0.00,0.0,WeatherDisplay:10.37,2013-06-26 04:59:00,
2013-06-26 01:29:00,70.8,69.6,29.74,NNW,336,0.0,2.0,96,0.00,CLR,,0.00,0.0,WeatherDisplay:10.37,2013-06-26 05:29:00,
2013-06-26 01:59:00,70.5,69.3,29.73,NNW,336,0.0,1.0,96,0.00,CLR,,0.00,0.0,WeatherDisplay:10.37,2013-06-26 05:59:00,
2013-06-26 02:29:00,70.3,69.1,29.72,NNW,336,0.0,2.0,96,0.00,CLR,,0.00,0.0,WeatherDisplay:10.37,2013-06-26 06:29:00,
2013-06-26 02:59:00,70.0,68.8,29.72,NNW,336,0.0,0.0,96,0.00,CLR,,0.00,0.0,WeatherDisplay:10.37,2013-06-26 06:59:00,
2013-06-26 03:29:00,69.4,68.2,29.72,NNW,336,0.0,0.0,96,0.00,CLR,,0.00,0.0,WeatherDisplay:10.37,2013-06-26 07:29:00,
2013-06-26 03:59:00,68.8,67.9,29.73,NNW,336,0.0,0.0,97,0.00,CLR,,0.00,0.0,WeatherDisplay:10.37,2013-06-26 07:59:00,
2013-06-26 04:29:00,68.5,67.9,29.73,NNW,336,0.0,0.0,98,0.00,CLR,,0.00,0.0,WeatherDisplay:10.37,2013-06-26 08:29:00,
2013-06-26 04:59:00,68.1,67.5,29.74,NNW,336,0.0,1.0,98,0.00,OVC,,0.00,0.0,WeatherDisplay:10.37,2013-06-26 08:59:00,
2013-06-26 05:29:00,68.0,67.7,29.74,NNW,336,0.0,0.0,99,0.00,SCT,,0.00,26.0,WeatherDisplay:10.37,2013-06-26 09:29:00,
2013-06-26 05:59:00,68.6,68.3,29.74,NNW,336,0.0,1.0,99,0.00,SCT,,0.00,58.0,WeatherDisplay:10.37,2013-06-26 09:59:00,
2013-06-26 06:29:00,69.7,69.5,29.75,NNW,336,0.0,1.0,99,0.00,SCT,,0.00,81.0,WeatherDisplay:10.37,2013-06-26 10:29:00,
2013-06-26 06:59:00,71.0,70.4,29.74,NNW,336,0.0,3.0,98,0.00,SCT,,0.00,121.0,WeatherDisplay:10.37,2013-06-26 10:59:00,
2013-06-26 07:29:00,72.9,71.7,29.74,NNW,336,0.0,3.0,96,0.00,FEW,,0.00,329.0,WeatherDisplay:10.37,2013-06-26 11:29:00,
2013-06-26 07:59:00,74.9,71.8,29.75,NNW,336,0.0,3.0,90,0.00,SCT,,0.00,220.0,WeatherDisplay:10.37,2013-06-26 11:59:00,
2013-06-26 08:29:00,76.4,71.9,29.76,NNW,336,0.0,4.0,86,0.00,CLR,,0.00,534.0,WeatherDisplay:10.37,2013-06-26 12:29:00,
2013-06-26 08:59:00,79.0,72.7,29.76,NW,307,1.0,5.0,81,0.00,FEW,,0.00,557.0,WeatherDisplay:10.37,2013-06-26 12:59:00,
2013-06-26 09:29:00,81.1,73.2,29.75,NW,326,1.0,6.0,77,0.00,FEW,,0.00,626.0,WeatherDisplay:10.37,2013-06-26 13:29:00,
2013-06-26 09:59:00,81.2,72.5,29.75,NNW,337,0.0,6.0,75,0.00,FEW,,0.00,721.0,WeatherDisplay:10.37,2013-06-26 13:59:00,
2013-06-26 10:29:00,81.4,72.3,29.76,NW,315,0.0,4.0,74,0.00,BKN,,0.00,800.0,WeatherDisplay:10.37,2013-06-26 14:29:00,
2013-06-26 10:59:00,83.0,73.4,29.76,NNW,329,0.0,6.0,73,0.00,BKN,,0.00,884.0,WeatherDisplay:10.37,2013-06-26 14:59:00,
2013-06-26 11:29:00,84.0,74.4,29.75,NNW,340,0.0,7.0,73,0.00,BKN,,0.00,206.0,WeatherDisplay:10.37,2013-06-26 15:29:00,
2013-06-26 11:59:00,80.2,73.5,29.76,NNW,336,0.0,3.0,80,0.00,BKN,,0.00,285.0,WeatherDisplay:10.37,2013-06-26 15:59:00,
2013-06-26 12:29:00,79.1,72.8,29.76,NNW,340,5.0,8.0,81,0.00,BKN,,0.00,258.0,WeatherDisplay:10.37,2013-06-26 16:29:00,
2013-06-26 12:59:00,77.4,72.9,29.76,NNW,340,0.0,7.0,86,0.00,BKN,,0.00,299.0,WeatherDisplay:10.37,2013-06-26 16:59:00,
2013-06-26 13:29:00,78.0,73.5,29.76,NNW,340,0.0,3.0,86,0.00,BKN,,0.00,144.0,WeatherDisplay:10.37,2013-06-26 17:29:00,
2013-06-26 13:59:00,77.8,74.6,29.76,ESE,110,2.0,6.0,90,0.01,BKN,,0.01,526.0,WeatherDisplay:10.37,2013-06-26 17:59:00,
2013-06-26 14:29:00,79.5,74.2,29.76,SSE,158,1.0,6.0,84,0.00,BKN,,0.01,353.0,WeatherDisplay:10.37,2013-06-26 18:29:00,
2013-06-26 14:59:00,81.2,74.4,29.76,SSE,157,1.0,6.0,80,0.00,BKN,,0.01,318.0,WeatherDisplay:10.37,2013-06-26 18:59:00,
2013-06-26 15:29:00,78.7,74.2,29.76,ESE,120,1.0,3.0,86,0.00,BKN,,0.01,206.0,WeatherDisplay:10.37,2013-06-26 19:29:00,
2013-06-26 15:59:00,79.5,75.6,29.76,North,11,0.0,5.0,88,0.00,BKN,,0.01,97.0,WeatherDisplay:10.37,2013-06-26 19:59:00,
2013-06-26 16:29:00,77.6,73.7,29.76,North,3,1.0,7.0,88,0.02,RA,,0.03,121.0,WeatherDisplay:10.37,2013-06-26 20:29:00,
2013-06-26 16:59:00,75.0,73.4,29.75,NNE,22,0.0,4.0,95,0.07,BKN,,0.10,162.0,WeatherDisplay:10.37,2013-06-26 20:59:00,
2013-06-26 17:29:00,74.0,72.5,29.77,NE,36,0.0,3.0,95,0.00,BKN,,0.10,44.0,WeatherDisplay:10.37,2013-06-26 21:29:00,
2013-06-26 17:59:00,72.6,71.4,29.78,NNE,14,0.0,4.0,96,0.05,RA,,0.15,102.0,WeatherDisplay:10.37,2013-06-26 21:59:00,
2013-06-26 18:29:00,71.5,70.6,29.79,North,4,1.0,4.0,97,0.00,BKN,,0.15,65.0,WeatherDisplay:10.37,2013-06-26 22:29:00,
2013-06-26 18:59:00,71.2,70.3,29.79,North,5,0.0,2.0,97,0.00,BKN,,0.15,74.0,WeatherDisplay:10.37,2013-06-26 22:59:00,
2013-06-26 19:29:00,71.2,70.3,29.80,North,9,0.0,3.0,97,0.00,SCT,,0.15,65.0,WeatherDisplay:10.37,2013-06-26 23:29:00,
2013-06-26 19:59:00,70.9,70.0,29.80,East,98,0.0,5.0,97,0.00,BKN,,0.15,26.0,WeatherDisplay:10.37,2013-06-26 23:59:00,
2013-06-26 20:29:00,70.3,69.4,29.82,East,98,0.0,2.0,97,0.00,OVC,,0.15,0.0,WeatherDisplay:10.37,2013-06-27 00:29:00,
2013-06-26 20:59:00,69.8,69.2,29.82,East,98,0.0,2.0,98,0.00,CLR,,0.15,0.0,WeatherDisplay:10.37,2013-06-27 00:59:00,
2013-06-26 21:29:00,69.6,69.0,29.83,East,97,0.0,3.0,98,0.00,CLR,,0.15,0.0,WeatherDisplay:10.37,2013-06-27 01:29:00,
2013-06-26 21:59:00,68.7,68.1,29.84,ENE,78,1.0,7.0,98,0.00,CLR,,0.15,0.0,WeatherDisplay:10.37,2013-06-27 01:59:00,
2013-06-26 22:29:00,67.1,66.5,29.85,ENE,57,1.0,6.0,98,0.00,CLR,,0.15,0.0,WeatherDisplay:10.37,2013-06-27 02:29:00,
2013-06-26 22:59:00,65.3,64.7,29.85,NE,39,2.0,4.0,98,0.00,CLR,,0.15,0.0,WeatherDisplay:10.37,2013-06-27 02:59:00,
2013-06-26 23:29:00,64.7,64.1,29.86,NE,36,1.0,4.0,98,0.00,CLR,,0.15,0.0,WeatherDisplay:10.37,2013-06-27 03:29:00,